sensor_id;sensor_type;location;lat;lon;timestamp;temperature;humidity
14053;DHT22;7101;51.600;7.310;2023-02-28T00:00:32;-0.10;99.90
14053;DHT22;7101;51.600;7.310;2023-02-28T00:02:59;-0.10;99.90
14053;DHT22;7101;51.600;7.310;2023-02-28T00:05:27;-0.10;99.90
14053;DHT22;7101;51.600;7.310;2023-02-28T00:07:55;-0.10;99.90
14053;DHT22;7101;51.600;7.310;2023-02-28T00:10:24;-0.10;99.90
14053;DHT22;7101;51.600;7.310;2023-02-28T00:12:53;-0.20;99.90
14053;DHT22;7101;51.600;7.310;2023-02-28T00:15:23;-0.30;99.90
14053;DHT22;7101;51.600;7.310;2023-02-28T00:17:51;-0.40;99.90
14053;DHT22;7101;51.600;7.310;2023-02-28T00:20:19;-0.20;99.90
14053;DHT22;7101;51.600;7.310;2023-02-28T00:22:48;-0.20;99.90
14053;DHT22;7101;51.600;7.310;2023-02-28T00:25:16;-0.10;99.90
14053;DHT22;7101;51.600;7.310;2023-02-28T00:27:44;-0.10;99.90
14053;DHT22;7101;51.600;7.310;2023-02-28T00:30:13;-0.20;99.90
14053;DHT22;7101;51.600;7.310;2023-02-28T00:32:41;-0.30;99.90
14053;DHT22;7101;51.600;7.310;2023-02-28T00:35:10;-0.20;99.90
14053;DHT22;7101;51.600;7.310;2023-02-28T00:37:38;-0.20;99.90
14053;DHT22;7101;51.600;7.310;2023-02-28T00:40:06;-0.10;99.90
14053;DHT22;7101;51.600;7.310;2023-02-28T00:42:35;-0.20;99.90
14053;DHT22;7101;51.600;7.310;2023-02-28T00:45:02;-0.20;99.90
14053;DHT22;7101;51.600;7.310;2023-02-28T00:47:30;-0.20;99.90
14053;DHT22;7101;51.600;7.310;2023-02-28T00:49:57;-0.30;99.90
14053;DHT22;7101;51.600;7.310;2023-02-28T00:52:25;-0.30;99.90
14053;DHT22;7101;51.600;7.310;2023-02-28T00:54:53;-0.30;99.90
14053;DHT22;7101;51.600;7.310;2023-02-28T00:57:20;-0.40;99.90
14053;DHT22;7101;51.600;7.310;2023-02-28T00:59:48;-0.40;99.90
14053;DHT22;7101;51.600;7.310;2023-02-28T01:02:15;-0.50;99.90
14053;DHT22;7101;51.600;7.310;2023-02-28T01:04:43;-0.50;99.90
14053;DHT22;7101;51.600;7.310;2023-02-28T01:07:10;-0.50;99.90
14053;DHT22;7101;51.600;7.310;2023-02-28T01:09:38;-0.60;99.90
14053;DHT22;7101;51.600;7.310;2023-02-28T01:12:07;-0.60;99.90
14053;DHT22;7101;51.600;7.310;2023-02-28T01:14:34;-0.70;99.90
14053;DHT22;7101;51.600;7.310;2023-02-28T01:17:01;-0.80;99.90
14053;DHT22;7101;51.600;7.310;2023-02-28T01:19:28;-0.80;99.90
14053;DHT22;7101;51.600;7.310;2023-02-28T01:21:55;-0.90;99.90
14053;DHT22;7101;51.600;7.310;2023-02-28T01:24:22;-0.90;99.90
14053;DHT22;7101;51.600;7.310;2023-02-28T01:26:50;-1.00;99.90
14053;DHT22;7101;51.600;7.310;2023-02-28T01:29:18;-1.10;99.90
14053;DHT22;7101;51.600;7.310;2023-02-28T01:31:45;-1.10;99.90
14053;DHT22;7101;51.600;7.310;2023-02-28T01:34:13;-1.20;99.90
14053;DHT22;7101;51.600;7.310;2023-02-28T01:36:39;-1.30;99.90
14053;DHT22;7101;51.600;7.310;2023-02-28T01:39:06;-1.40;99.90
14053;DHT22;7101;51.600;7.310;2023-02-28T01:41:34;-1.50;99.90
14053;DHT22;7101;51.600;7.310;2023-02-28T01:44:05;-1.60;99.90
14053;DHT22;7101;51.600;7.310;2023-02-28T01:46:34;-1.60;99.90
14053;DHT22;7101;51.600;7.310;2023-02-28T01:49:06;-1.70;99.90
14053;DHT22;7101;51.600;7.310;2023-02-28T01:51:39;-1.80;99.90
14053;DHT22;7101;51.600;7.310;2023-02-28T01:54:16;-1.80;99.90
14053;DHT22;7101;51.600;7.310;2023-02-28T01:56:47;-1.80;99.90
14053;DHT22;7101;51.600;7.310;2023-02-28T01:59:22;-1.90;99.90
14053;DHT22;7101;51.600;7.310;2023-02-28T02:01:52;-1.90;99.90
14053;DHT22;7101;51.600;7.310;2023-02-28T02:04:40;-2.00;99.90
14053;DHT22;7101;51.600;7.310;2023-02-28T02:07:09;-2.00;99.90
14053;DHT22;7101;51.600;7.310;2023-02-28T02:09:36;-2.00;99.90
14053;DHT22;7101;51.600;7.310;2023-02-28T02:12:10;-1.80;99.90
14053;DHT22;7101;51.600;7.310;2023-02-28T02:14:52;-1.60;99.90
14053;DHT22;7101;51.600;7.310;2023-02-28T02:17:31;-1.70;99.90
14053;DHT22;7101;51.600;7.310;2023-02-28T02:20:26;-1.80;99.90
14053;DHT22;7101;51.600;7.310;2023-02-28T02:26:26;-2.10;99.90
14053;DHT22;7101;51.600;7.310;2023-02-28T02:29:22;-2.10;99.90
14053;DHT22;7101;51.600;7.310;2023-02-28T02:32:09;-2.20;99.90
14053;DHT22;7101;51.600;7.310;2023-02-28T02:34:50;-2.20;99.90
14053;DHT22;7101;51.600;7.310;2023-02-28T02:37:27;-2.20;99.90
14053;DHT22;7101;51.600;7.310;2023-02-28T02:40:02;-2.10;99.90
14053;DHT22;7101;51.600;7.310;2023-02-28T02:42:35;-2.20;99.90
14053;DHT22;7101;51.600;7.310;2023-02-28T02:45:08;-2.10;99.90
14053;DHT22;7101;51.600;7.310;2023-02-28T02:47:36;-2.00;99.90
14053;DHT22;7101;51.600;7.310;2023-02-28T02:50:11;-2.00;99.90
14053;DHT22;7101;51.600;7.310;2023-02-28T02:52:44;-2.00;99.90
14053;DHT22;7101;51.600;7.310;2023-02-28T02:55:13;-2.10;99.90
14053;DHT22;7101;51.600;7.310;2023-02-28T02:57:45;-2.00;99.90
14053;DHT22;7101;51.600;7.310;2023-02-28T03:00:16;-2.10;99.90
14053;DHT22;7101;51.600;7.310;2023-02-28T03:02:45;-2.00;99.90
14053;DHT22;7101;51.600;7.310;2023-02-28T03:05:19;-2.00;99.90
14053;DHT22;7101;51.600;7.310;2023-02-28T03:07:46;-2.00;99.90
14053;DHT22;7101;51.600;7.310;2023-02-28T03:10:29;-1.80;99.90
14053;DHT22;7101;51.600;7.310;2023-02-28T03:13:06;-1.80;99.90
14053;DHT22;7101;51.600;7.310;2023-02-28T03:15:50;-1.90;99.90
14053;DHT22;7101;51.600;7.310;2023-02-28T03:18:25;-1.90;99.90
14053;DHT22;7101;51.600;7.310;2023-02-28T03:21:04;-1.90;99.90
14053;DHT22;7101;51.600;7.310;2023-02-28T03:23:37;-1.80;99.90
14053;DHT22;7101;51.600;7.310;2023-02-28T03:26:09;-1.80;99.90
14053;DHT22;7101;51.600;7.310;2023-02-28T03:28:50;-1.80;99.90
14053;DHT22;7101;51.600;7.310;2023-02-28T03:31:21;-1.70;99.90
14053;DHT22;7101;51.600;7.310;2023-02-28T03:33:51;-1.70;99.90
14053;DHT22;7101;51.600;7.310;2023-02-28T03:36:25;-1.60;99.90
14053;DHT22;7101;51.600;7.310;2023-02-28T03:38:57;-1.60;99.90
14053;DHT22;7101;51.600;7.310;2023-02-28T03:41:31;-1.60;99.90
14053;DHT22;7101;51.600;7.310;2023-02-28T03:44:03;-1.60;99.90
14053;DHT22;7101;51.600;7.310;2023-02-28T03:46:34;-1.70;99.90
14053;DHT22;7101;51.600;7.310;2023-02-28T03:49:08;-1.80;99.90
14053;DHT22;7101;51.600;7.310;2023-02-28T03:51:41;-1.80;99.90
14053;DHT22;7101;51.600;7.310;2023-02-28T03:54:11;-1.80;99.90
14053;DHT22;7101;51.600;7.310;2023-02-28T03:56:42;-1.80;99.90
14053;DHT22;7101;51.600;7.310;2023-02-28T03:59:15;-1.80;99.90
14053;DHT22;7101;51.600;7.310;2023-02-28T04:01:48;-1.80;99.90
14053;DHT22;7101;51.600;7.310;2023-02-28T04:04:15;-1.80;99.90
14053;DHT22;7101;51.600;7.310;2023-02-28T04:06:45;-1.80;99.90
14053;DHT22;7101;51.600;7.310;2023-02-28T04:09:13;-1.90;99.90
14053;DHT22;7101;51.600;7.310;2023-02-28T04:11:42;-1.90;99.90
14053;DHT22;7101;51.600;7.310;2023-02-28T04:14:11;-1.90;99.90
14053;DHT22;7101;51.600;7.310;2023-02-28T04:16:40;-1.90;99.90
14053;DHT22;7101;51.600;7.310;2023-02-28T04:19:08;-1.90;99.90
14053;DHT22;7101;51.600;7.310;2023-02-28T04:21:37;-1.80;99.90
14053;DHT22;7101;51.600;7.310;2023-02-28T04:24:08;-1.80;99.90
14053;DHT22;7101;51.600;7.310;2023-02-28T04:26:40;-1.80;99.90
14053;DHT22;7101;51.600;7.310;2023-02-28T04:29:09;-1.80;99.90
14053;DHT22;7101;51.600;7.310;2023-02-28T04:31:37;-1.80;99.90
14053;DHT22;7101;51.600;7.310;2023-02-28T04:34:04;-1.80;99.90
14053;DHT22;7101;51.600;7.310;2023-02-28T04:36:32;-1.90;99.90
14053;DHT22;7101;51.600;7.310;2023-02-28T04:38:59;-1.80;99.90
14053;DHT22;7101;51.600;7.310;2023-02-28T04:41:27;-1.80;99.90
14053;DHT22;7101;51.600;7.310;2023-02-28T04:43:54;-1.80;99.90
14053;DHT22;7101;51.600;7.310;2023-02-28T04:46:22;-1.80;99.90
14053;DHT22;7101;51.600;7.310;2023-02-28T04:48:49;-1.80;99.90
14053;DHT22;7101;51.600;7.310;2023-02-28T04:51:18;-1.80;99.90
14053;DHT22;7101;51.600;7.310;2023-02-28T04:53:45;-1.80;99.90
14053;DHT22;7101;51.600;7.310;2023-02-28T04:56:14;-1.80;99.90
14053;DHT22;7101;51.600;7.310;2023-02-28T04:58:42;-1.90;99.90
14053;DHT22;7101;51.600;7.310;2023-02-28T05:01:19;-1.80;99.90
14053;DHT22;7101;51.600;7.310;2023-02-28T05:03:46;-1.80;99.90
14053;DHT22;7101;51.600;7.310;2023-02-28T05:06:13;-1.90;99.90
14053;DHT22;7101;51.600;7.310;2023-02-28T05:08:41;-1.90;99.90
14053;DHT22;7101;51.600;7.310;2023-02-28T05:11:15;-1.90;99.90
14053;DHT22;7101;51.600;7.310;2023-02-28T05:13:44;-1.90;99.90
14053;DHT22;7101;51.600;7.310;2023-02-28T05:16:11;-1.90;99.90
14053;DHT22;7101;51.600;7.310;2023-02-28T05:18:38;-1.90;99.90
14053;DHT22;7101;51.600;7.310;2023-02-28T05:21:05;-1.90;99.90
14053;DHT22;7101;51.600;7.310;2023-02-28T05:23:33;-1.80;99.90
14053;DHT22;7101;51.600;7.310;2023-02-28T05:25:59;-1.80;99.90
14053;DHT22;7101;51.600;7.310;2023-02-28T05:28:26;-1.90;99.90
14053;DHT22;7101;51.600;7.310;2023-02-28T05:30:54;-1.90;99.90
14053;DHT22;7101;51.600;7.310;2023-02-28T05:33:21;-2.00;99.90
14053;DHT22;7101;51.600;7.310;2023-02-28T05:35:48;-2.00;99.90
14053;DHT22;7101;51.600;7.310;2023-02-28T05:38:15;-2.10;99.90
14053;DHT22;7101;51.600;7.310;2023-02-28T05:40:43;-2.10;99.90
14053;DHT22;7101;51.600;7.310;2023-02-28T05:43:10;-2.20;99.90
14053;DHT22;7101;51.600;7.310;2023-02-28T05:45:38;-2.30;99.90
14053;DHT22;7101;51.600;7.310;2023-02-28T05:48:07;-2.20;99.90
14053;DHT22;7101;51.600;7.310;2023-02-28T05:50:34;-2.20;99.90
14053;DHT22;7101;51.600;7.310;2023-02-28T05:53:02;-2.20;99.90
14053;DHT22;7101;51.600;7.310;2023-02-28T05:55:29;-2.10;99.90
14053;DHT22;7101;51.600;7.310;2023-02-28T05:57:56;-2.20;99.90
14053;DHT22;7101;51.600;7.310;2023-02-28T06:00:22;-2.20;99.90
14053;DHT22;7101;51.600;7.310;2023-02-28T06:02:50;-2.20;99.90
14053;DHT22;7101;51.600;7.310;2023-02-28T06:05:23;-2.20;99.90
14053;DHT22;7101;51.600;7.310;2023-02-28T06:07:50;-2.20;99.90
14053;DHT22;7101;51.600;7.310;2023-02-28T06:10:17;-2.20;99.90
14053;DHT22;7101;51.600;7.310;2023-02-28T06:12:45;-2.30;99.90
14053;DHT22;7101;51.600;7.310;2023-02-28T06:15:14;-2.30;99.90
14053;DHT22;7101;51.600;7.310;2023-02-28T06:17:41;-2.30;99.90
14053;DHT22;7101;51.600;7.310;2023-02-28T06:20:09;-2.30;99.90
14053;DHT22;7101;51.600;7.310;2023-02-28T06:22:39;-2.40;99.90
14053;DHT22;7101;51.600;7.310;2023-02-28T06:25:07;-2.40;99.90
14053;DHT22;7101;51.600;7.310;2023-02-28T06:27:34;-2.40;99.90
14053;DHT22;7101;51.600;7.310;2023-02-28T06:30:01;-2.40;99.90
14053;DHT22;7101;51.600;7.310;2023-02-28T06:32:29;-2.30;99.90
14053;DHT22;7101;51.600;7.310;2023-02-28T06:34:55;-2.20;99.90
14053;DHT22;7101;51.600;7.310;2023-02-28T06:37:23;-2.10;99.90
14053;DHT22;7101;51.600;7.310;2023-02-28T06:39:53;-2.00;99.90
14053;DHT22;7101;51.600;7.310;2023-02-28T06:42:21;-2.00;99.90
14053;DHT22;7101;51.600;7.310;2023-02-28T06:44:50;-2.10;99.90
14053;DHT22;7101;51.600;7.310;2023-02-28T06:47:17;-2.10;99.90
14053;DHT22;7101;51.600;7.310;2023-02-28T06:49:43;-2.00;99.90
14053;DHT22;7101;51.600;7.310;2023-02-28T06:52:11;-2.00;99.90
14053;DHT22;7101;51.600;7.310;2023-02-28T06:54:38;-2.10;99.90
14053;DHT22;7101;51.600;7.310;2023-02-28T06:57:06;-1.90;99.90
14053;DHT22;7101;51.600;7.310;2023-02-28T06:59:40;-1.80;99.90
14053;DHT22;7101;51.600;7.310;2023-02-28T07:02:08;-1.80;99.90
14053;DHT22;7101;51.600;7.310;2023-02-28T07:04:34;-1.90;99.90
14053;DHT22;7101;51.600;7.310;2023-02-28T07:07:01;-1.90;99.90
14053;DHT22;7101;51.600;7.310;2023-02-28T07:09:28;-1.80;99.90
14053;DHT22;7101;51.600;7.310;2023-02-28T07:11:55;-1.50;99.90
14053;DHT22;7101;51.600;7.310;2023-02-28T07:14:23;-0.30;99.90
14053;DHT22;7101;51.600;7.310;2023-02-28T07:16:50;0.80;99.90
14053;DHT22;7101;51.600;7.310;2023-02-28T07:19:17;2.10;99.90
14053;DHT22;7101;51.600;7.310;2023-02-28T07:21:44;3.10;99.90
14053;DHT22;7101;51.600;7.310;2023-02-28T07:24:12;4.10;99.90
14053;DHT22;7101;51.600;7.310;2023-02-28T07:26:41;4.60;99.90
14053;DHT22;7101;51.600;7.310;2023-02-28T07:29:10;5.40;99.90
14053;DHT22;7101;51.600;7.310;2023-02-28T07:31:38;5.80;99.90
14053;DHT22;7101;51.600;7.310;2023-02-28T07:34:05;6.20;99.90
14053;DHT22;7101;51.600;7.310;2023-02-28T07:36:32;6.20;98.60
14053;DHT22;7101;51.600;7.310;2023-02-28T07:38:59;6.00;99.40
14053;DHT22;7101;51.600;7.310;2023-02-28T07:41:27;6.20;97.20
14053;DHT22;7101;51.600;7.310;2023-02-28T07:43:55;6.40;97.10
14053;DHT22;7101;51.600;7.310;2023-02-28T07:46:23;6.50;95.40
14053;DHT22;7101;51.600;7.310;2023-02-28T07:48:51;6.40;96.70
14053;DHT22;7101;51.600;7.310;2023-02-28T07:51:21;6.10;94.90
14053;DHT22;7101;51.600;7.310;2023-02-28T07:53:49;5.50;96.00
14053;DHT22;7101;51.600;7.310;2023-02-28T07:56:15;4.30;97.80
14053;DHT22;7101;51.600;7.310;2023-02-28T07:58:47;3.80;99.90
14053;DHT22;7101;51.600;7.310;2023-02-28T08:01:14;4.00;99.90
14053;DHT22;7101;51.600;7.310;2023-02-28T08:03:41;4.30;99.90
14053;DHT22;7101;51.600;7.310;2023-02-28T08:06:18;4.60;99.90
14053;DHT22;7101;51.600;7.310;2023-02-28T08:08:46;4.00;99.90
14053;DHT22;7101;51.600;7.310;2023-02-28T08:11:13;4.10;99.90
14053;DHT22;7101;51.600;7.310;2023-02-28T08:13:43;3.90;99.90
14053;DHT22;7101;51.600;7.310;2023-02-28T08:16:11;3.30;99.90
14053;DHT22;7101;51.600;7.310;2023-02-28T08:18:40;3.00;99.90
14053;DHT22;7101;51.600;7.310;2023-02-28T08:21:07;3.00;99.90
14053;DHT22;7101;51.600;7.310;2023-02-28T08:23:36;2.50;99.90
14053;DHT22;7101;51.600;7.310;2023-02-28T08:26:05;2.20;99.90
14053;DHT22;7101;51.600;7.310;2023-02-28T08:28:34;2.00;99.90
14053;DHT22;7101;51.600;7.310;2023-02-28T08:31:01;2.00;99.90
14053;DHT22;7101;51.600;7.310;2023-02-28T08:33:34;1.80;99.90
14053;DHT22;7101;51.600;7.310;2023-02-28T08:36:04;1.90;99.90
14053;DHT22;7101;51.600;7.310;2023-02-28T08:38:32;1.90;99.90
14053;DHT22;7101;51.600;7.310;2023-02-28T08:41:03;2.10;99.90
14053;DHT22;7101;51.600;7.310;2023-02-28T08:43:32;2.10;99.90
14053;DHT22;7101;51.600;7.310;2023-02-28T08:45:59;2.10;99.90
14053;DHT22;7101;51.600;7.310;2023-02-28T08:48:27;2.10;99.90
14053;DHT22;7101;51.600;7.310;2023-02-28T08:50:55;2.10;99.90
14053;DHT22;7101;51.600;7.310;2023-02-28T08:53:22;2.20;99.90
14053;DHT22;7101;51.600;7.310;2023-02-28T08:55:56;2.10;99.90
14053;DHT22;7101;51.600;7.310;2023-02-28T08:58:26;2.20;99.90
14053;DHT22;7101;51.600;7.310;2023-02-28T09:00:54;2.40;99.90
14053;DHT22;7101;51.600;7.310;2023-02-28T09:03:23;2.30;99.90
14053;DHT22;7101;51.600;7.310;2023-02-28T09:05:59;2.20;99.90
14053;DHT22;7101;51.600;7.310;2023-02-28T09:08:27;2.10;99.90
14053;DHT22;7101;51.600;7.310;2023-02-28T09:10:54;2.20;99.90
14053;DHT22;7101;51.600;7.310;2023-02-28T09:13:23;2.40;99.90
14053;DHT22;7101;51.600;7.310;2023-02-28T09:15:52;2.50;99.90
14053;DHT22;7101;51.600;7.310;2023-02-28T09:18:21;2.60;99.90
14053;DHT22;7101;51.600;7.310;2023-02-28T09:20:48;2.80;99.90
14053;DHT22;7101;51.600;7.310;2023-02-28T09:23:15;2.80;99.90
14053;DHT22;7101;51.600;7.310;2023-02-28T09:25:46;2.80;99.90
14053;DHT22;7101;51.600;7.310;2023-02-28T09:28:13;2.80;99.90
14053;DHT22;7101;51.600;7.310;2023-02-28T09:30:43;2.80;99.90
14053;DHT22;7101;51.600;7.310;2023-02-28T09:33:12;2.70;99.90
14053;DHT22;7101;51.600;7.310;2023-02-28T09:35:41;2.70;99.90
14053;DHT22;7101;51.600;7.310;2023-02-28T09:38:08;2.80;99.90
14053;DHT22;7101;51.600;7.310;2023-02-28T09:40:47;3.00;99.90
14053;DHT22;7101;51.600;7.310;2023-02-28T09:43:16;3.00;99.90
14053;DHT22;7101;51.600;7.310;2023-02-28T09:45:48;3.00;99.90
14053;DHT22;7101;51.600;7.310;2023-02-28T09:48:25;3.20;99.90
14053;DHT22;7101;51.600;7.310;2023-02-28T09:51:00;3.30;99.90
14053;DHT22;7101;51.600;7.310;2023-02-28T09:53:31;3.20;99.90
14053;DHT22;7101;51.600;7.310;2023-02-28T09:56:02;3.40;99.90
14053;DHT22;7101;51.600;7.310;2023-02-28T09:58:35;3.50;99.90
14053;DHT22;7101;51.600;7.310;2023-02-28T10:01:08;3.60;99.60
14053;DHT22;7101;51.600;7.310;2023-02-28T10:03:44;3.60;99.90
14053;DHT22;7101;51.600;7.310;2023-02-28T10:06:16;3.70;99.50
14053;DHT22;7101;51.600;7.310;2023-02-28T10:08:50;3.80;97.70
14053;DHT22;7101;51.600;7.310;2023-02-28T10:11:19;3.80;97.60
14053;DHT22;7101;51.600;7.310;2023-02-28T10:13:53;3.80;97.80
14053;DHT22;7101;51.600;7.310;2023-02-28T10:16:28;3.90;97.40
14053;DHT22;7101;51.600;7.310;2023-02-28T10:19:02;3.80;96.50
14053;DHT22;7101;51.600;7.310;2023-02-28T10:21:34;3.80;94.10
14053;DHT22;7101;51.600;7.310;2023-02-28T10:24:19;3.90;95.80
14053;DHT22;7101;51.600;7.310;2023-02-28T10:26:48;4.10;94.50
14053;DHT22;7101;51.600;7.310;2023-02-28T10:29:15;4.30;95.00
14053;DHT22;7101;51.600;7.310;2023-02-28T10:31:42;4.60;94.70
14053;DHT22;7101;51.600;7.310;2023-02-28T10:34:12;4.90;91.70
14053;DHT22;7101;51.600;7.310;2023-02-28T10:36:40;4.90;93.20
14053;DHT22;7101;51.600;7.310;2023-02-28T10:39:35;4.60;88.50
14053;DHT22;7101;51.600;7.310;2023-02-28T10:42:02;4.40;89.60
14053;DHT22;7101;51.600;7.310;2023-02-28T10:44:33;4.30;89.00
14053;DHT22;7101;51.600;7.310;2023-02-28T10:47:00;4.10;87.80
14053;DHT22;7101;51.600;7.310;2023-02-28T10:49:29;3.90;89.70
14053;DHT22;7101;51.600;7.310;2023-02-28T10:51:57;3.90;88.20
14053;DHT22;7101;51.600;7.310;2023-02-28T10:54:29;3.90;90.00
14053;DHT22;7101;51.600;7.310;2023-02-28T10:57:07;3.70;87.70
14053;DHT22;7101;51.600;7.310;2023-02-28T10:59:35;3.70;88.00
14053;DHT22;7101;51.600;7.310;2023-02-28T11:02:08;3.80;86.40
14053;DHT22;7101;51.600;7.310;2023-02-28T11:04:50;4.10;91.40
14053;DHT22;7101;51.600;7.310;2023-02-28T11:07:20;4.20;88.50
14053;DHT22;7101;51.600;7.310;2023-02-28T11:09:49;4.00;86.10
14053;DHT22;7101;51.600;7.310;2023-02-28T11:12:25;4.10;86.60
14053;DHT22;7101;51.600;7.310;2023-02-28T11:14:57;3.90;87.10
14053;DHT22;7101;51.600;7.310;2023-02-28T11:17:28;3.90;85.80
14053;DHT22;7101;51.600;7.310;2023-02-28T11:20:01;4.10;88.50
14053;DHT22;7101;51.600;7.310;2023-02-28T11:22:31;4.00;88.00
14053;DHT22;7101;51.600;7.310;2023-02-28T11:25:06;3.80;89.10
14053;DHT22;7101;51.600;7.310;2023-02-28T11:27:45;3.80;88.00
14053;DHT22;7101;51.600;7.310;2023-02-28T11:32:57;3.70;88.70
14053;DHT22;7101;51.600;7.310;2023-02-28T11:35:30;3.90;87.10
14053;DHT22;7101;51.600;7.310;2023-02-28T11:37:58;4.00;88.90
14053;DHT22;7101;51.600;7.310;2023-02-28T11:40:33;4.00;88.30
14053;DHT22;7101;51.600;7.310;2023-02-28T11:43:11;4.00;88.50
14053;DHT22;7101;51.600;7.310;2023-02-28T11:46:00;4.20;89.00
14053;DHT22;7101;51.600;7.310;2023-02-28T11:48:39;4.20;89.70
14053;DHT22;7101;51.600;7.310;2023-02-28T11:51:15;4.00;89.50
14053;DHT22;7101;51.600;7.310;2023-02-28T11:53:55;4.10;90.80
14053;DHT22;7101;51.600;7.310;2023-02-28T11:56:31;4.20;90.90
14053;DHT22;7101;51.600;7.310;2023-02-28T11:59:12;4.30;91.00
14053;DHT22;7101;51.600;7.310;2023-02-28T12:02:05;4.50;90.40
14053;DHT22;7101;51.600;7.310;2023-02-28T12:04:40;4.60;91.80
14053;DHT22;7101;51.600;7.310;2023-02-28T12:07:15;4.60;90.70
14053;DHT22;7101;51.600;7.310;2023-02-28T12:09:54;4.70;91.50
14053;DHT22;7101;51.600;7.310;2023-02-28T12:12:34;4.90;92.30
14053;DHT22;7101;51.600;7.310;2023-02-28T12:15:42;5.00;91.40
14053;DHT22;7101;51.600;7.310;2023-02-28T12:18:24;5.10;91.60
14053;DHT22;7101;51.600;7.310;2023-02-28T12:21:04;5.10;90.60
14053;DHT22;7101;51.600;7.310;2023-02-28T12:23:48;4.70;91.50
14053;DHT22;7101;51.600;7.310;2023-02-28T12:26:25;4.50;91.20
14053;DHT22;7101;51.600;7.310;2023-02-28T12:29:07;4.30;91.80
14053;DHT22;7101;51.600;7.310;2023-02-28T12:31:40;4.40;93.70
14053;DHT22;7101;51.600;7.310;2023-02-28T12:34:11;4.70;93.30
14053;DHT22;7101;51.600;7.310;2023-02-28T12:36:39;5.00;92.20
14053;DHT22;7101;51.600;7.310;2023-02-28T12:39:12;5.10;91.90
14053;DHT22;7101;51.600;7.310;2023-02-28T12:41:44;5.30;91.90
14053;DHT22;7101;51.600;7.310;2023-02-28T12:44:15;5.50;91.50
14053;DHT22;7101;51.600;7.310;2023-02-28T12:46:48;5.70;92.00
14053;DHT22;7101;51.600;7.310;2023-02-28T12:49:19;5.70;92.90
14053;DHT22;7101;51.600;7.310;2023-02-28T12:51:48;5.50;90.80
14053;DHT22;7101;51.600;7.310;2023-02-28T12:54:22;5.60;92.50
14053;DHT22;7101;51.600;7.310;2023-02-28T12:56:56;5.20;92.50
14053;DHT22;7101;51.600;7.310;2023-02-28T12:59:29;5.10;93.50
14053;DHT22;7101;51.600;7.310;2023-02-28T13:02:16;5.00;91.00
14053;DHT22;7101;51.600;7.310;2023-02-28T13:05:26;4.90;92.30
14053;DHT22;7101;51.600;7.310;2023-02-28T13:08:08;5.00;92.70
14053;DHT22;7101;51.600;7.310;2023-02-28T13:10:40;4.90;92.30
14053;DHT22;7101;51.600;7.310;2023-02-28T13:13:14;4.60;92.70
14053;DHT22;7101;51.600;7.310;2023-02-28T13:15:57;4.60;92.50
14053;DHT22;7101;51.600;7.310;2023-02-28T13:18:30;4.60;93.20
14053;DHT22;7101;51.600;7.310;2023-02-28T13:20:57;4.60;92.80
14053;DHT22;7101;51.600;7.310;2023-02-28T13:23:40;4.60;92.30
14053;DHT22;7101;51.600;7.310;2023-02-28T13:26:09;4.50;92.10
14053;DHT22;7101;51.600;7.310;2023-02-28T13:29:21;4.50;92.50
14053;DHT22;7101;51.600;7.310;2023-02-28T13:35:36;4.40;92.40
14053;DHT22;7101;51.600;7.310;2023-02-28T13:38:16;4.50;93.60
14053;DHT22;7101;51.600;7.310;2023-02-28T13:40:45;4.70;93.40
14053;DHT22;7101;51.600;7.310;2023-02-28T13:43:17;4.90;93.40
14053;DHT22;7101;51.600;7.310;2023-02-28T13:46:06;5.10;92.40
14053;DHT22;7101;51.600;7.310;2023-02-28T13:48:35;5.10;92.50
14053;DHT22;7101;51.600;7.310;2023-02-28T13:51:27;5.20;93.70
14053;DHT22;7101;51.600;7.310;2023-02-28T13:54:00;5.10;93.60
14053;DHT22;7101;51.600;7.310;2023-02-28T13:56:41;4.90;91.80
14053;DHT22;7101;51.600;7.310;2023-02-28T13:59:22;4.60;92.30
14053;DHT22;7101;51.600;7.310;2023-02-28T14:02:02;4.50;92.50
14053;DHT22;7101;51.600;7.310;2023-02-28T14:07:33;4.50;93.10
14053;DHT22;7101;51.600;7.310;2023-02-28T14:10:05;4.50;94.30
14053;DHT22;7101;51.600;7.310;2023-02-28T14:13:03;4.60;94.30
14053;DHT22;7101;51.600;7.310;2023-02-28T14:15:39;4.70;94.80
14053;DHT22;7101;51.600;7.310;2023-02-28T14:18:19;4.90;94.90
14053;DHT22;7101;51.600;7.310;2023-02-28T14:20:48;4.90;92.70
14053;DHT22;7101;51.600;7.310;2023-02-28T14:23:26;4.90;93.50
14053;DHT22;7101;51.600;7.310;2023-02-28T14:26:03;4.90;93.20
14053;DHT22;7101;51.600;7.310;2023-02-28T14:28:47;5.00;92.10
14053;DHT22;7101;51.600;7.310;2023-02-28T14:31:24;4.90;92.80
14053;DHT22;7101;51.600;7.310;2023-02-28T14:34:05;5.00;92.80
14053;DHT22;7101;51.600;7.310;2023-02-28T14:36:34;5.00;95.80
14053;DHT22;7101;51.600;7.310;2023-02-28T14:39:07;5.10;94.30
14053;DHT22;7101;51.600;7.310;2023-02-28T14:41:41;5.00;94.30
14053;DHT22;7101;51.600;7.310;2023-02-28T14:44:17;5.10;94.10
14053;DHT22;7101;51.600;7.310;2023-02-28T14:46:48;5.20;94.60
14053;DHT22;7101;51.600;7.310;2023-02-28T14:49:19;5.10;94.90
14053;DHT22;7101;51.600;7.310;2023-02-28T14:51:50;5.10;95.20
14053;DHT22;7101;51.600;7.310;2023-02-28T14:54:28;5.00;95.00
14053;DHT22;7101;51.600;7.310;2023-02-28T14:56:55;4.80;96.00
14053;DHT22;7101;51.600;7.310;2023-02-28T14:59:28;4.80;96.60
14053;DHT22;7101;51.600;7.310;2023-02-28T15:02:19;4.90;96.90
14053;DHT22;7101;51.600;7.310;2023-02-28T15:04:57;4.80;96.30
14053;DHT22;7101;51.600;7.310;2023-02-28T15:07:25;4.70;95.80
14053;DHT22;7101;51.600;7.310;2023-02-28T15:10:10;4.80;96.90
14053;DHT22;7101;51.600;7.310;2023-02-28T15:12:39;4.80;96.30
14053;DHT22;7101;51.600;7.310;2023-02-28T15:15:15;4.90;97.20
14053;DHT22;7101;51.600;7.310;2023-02-28T15:17:49;4.90;97.50
14053;DHT22;7101;51.600;7.310;2023-02-28T15:20:18;4.80;97.00
14053;DHT22;7101;51.600;7.310;2023-02-28T15:22:46;4.80;95.00
14053;DHT22;7101;51.600;7.310;2023-02-28T15:25:17;4.80;95.10
14053;DHT22;7101;51.600;7.310;2023-02-28T15:27:47;4.90;94.60
14053;DHT22;7101;51.600;7.310;2023-02-28T15:30:17;4.80;93.60
14053;DHT22;7101;51.600;7.310;2023-02-28T15:33:03;4.80;94.90
14053;DHT22;7101;51.600;7.310;2023-02-28T15:35:32;4.80;94.10
14053;DHT22;7101;51.600;7.310;2023-02-28T15:38:01;4.80;93.80
14053;DHT22;7101;51.600;7.310;2023-02-28T15:40:32;4.80;93.80
14053;DHT22;7101;51.600;7.310;2023-02-28T15:43:12;4.80;94.40
14053;DHT22;7101;51.600;7.310;2023-02-28T15:45:44;4.80;93.10
14053;DHT22;7101;51.600;7.310;2023-02-28T15:48:19;4.70;93.20
14053;DHT22;7101;51.600;7.310;2023-02-28T15:50:52;4.70;92.90
14053;DHT22;7101;51.600;7.310;2023-02-28T15:53:22;4.70;93.00
14053;DHT22;7101;51.600;7.310;2023-02-28T15:56:01;4.70;93.40
14053;DHT22;7101;51.600;7.310;2023-02-28T15:58:31;4.70;93.90
14053;DHT22;7101;51.600;7.310;2023-02-28T16:01:05;4.70;93.80
14053;DHT22;7101;51.600;7.310;2023-02-28T16:03:40;4.70;94.30
14053;DHT22;7101;51.600;7.310;2023-02-28T16:08:56;4.60;93.90
14053;DHT22;7101;51.600;7.310;2023-02-28T16:11:23;4.60;94.30
14053;DHT22;7101;51.600;7.310;2023-02-28T16:13:50;4.60;94.60
14053;DHT22;7101;51.600;7.310;2023-02-28T16:16:19;4.60;94.00
14053;DHT22;7101;51.600;7.310;2023-02-28T16:18:48;4.60;94.50
14053;DHT22;7101;51.600;7.310;2023-02-28T16:21:15;4.50;94.80
14053;DHT22;7101;51.600;7.310;2023-02-28T16:23:42;4.50;94.70
14053;DHT22;7101;51.600;7.310;2023-02-28T16:26:19;4.50;95.00
14053;DHT22;7101;51.600;7.310;2023-02-28T16:28:47;4.50;95.30
14053;DHT22;7101;51.600;7.310;2023-02-28T16:31:14;4.50;95.60
14053;DHT22;7101;51.600;7.310;2023-02-28T16:33:42;4.40;96.00
14053;DHT22;7101;51.600;7.310;2023-02-28T16:36:16;4.40;96.10
14053;DHT22;7101;51.600;7.310;2023-02-28T16:38:44;4.30;96.20